Main page
METAR-TAF:

METAR-TAF

Airports :

Morón de la Frontera, Spain

Morón Air Base

latitude: 37-09N, longitude: 005-37W, elevation: 87 m

Current weather observation

The report was made 37 minutes ago, at 16:00 UTC
Wind 3 kt from the West/Northwest, varying between West and North/Northwest
Temperature 24°C
Humidity 22%
Pressure 1019 hPa
Visibility 10 km or more
no clouds below 1500 m and no cumulonimbus

METAR: LEMO 241600Z 30003KT 260V330 CAVOK 24/01 Q1019 NOSIG

Time: 17:37 (16:37 UTC)

Forecast

The report was made 2 hours and 37 minutes ago, at 14:00 UTC
Forecast valid from 24 at 15 UTC to 24 at 24 UTC
Wind 4 kt from the West
Visibility 10 km or more
no clouds below 1500 m and no cumulonimbus

TAF: LEMO 241400Z 2415/2424 28004KT CAVOK

Weather observations and forecasts of more than 4000 airports (METAR and TAF reports).

The available stations are represented by yellow and red dots on the map.

Hover mouse over dot to see the name of the station.

Then click to see weather observations and forecasts.

To change the map : click on the green buttons with a black cross to zoom in, on the green button with a dash to zoom out, or on the green arrows for adjacent maps.


METAR-TAF: